Time;durP1;ratioP1;P1;durP2;ratioP2;P2;SDS_P1;SDS_P2;PMS_P1;PMS_P2;Temp;Humidity;BMP_temperature;BMP_pressure;BME280_temperature;BME280_humidity;BME280_pressure;Samples;Min_cycle;Max_cycle;Signal;HPM_P1;HPM_P2
2021/06/11 00:00:01;;;;;;;8.63;7.13;;;;;;;;;;5003490;28;20038;-82
2021/06/11 00:02:28;;;;;;;9.15;6.65;;;;;;;;;;5008329;28;20026;-82
2021/06/11 00:04:54;;;;;;;7.32;6.13;;;;;;;;;;4981514;28;20077;-77
2021/06/11 00:07:20;;;;;;;7.93;6.28;;;;;;;;;;5027083;28;20025;-80
2021/06/11 00:09:47;;;;;;;8.38;6.60;;;;;;;;;;5004989;28;20028;-82
2021/06/11 00:12:14;;;;;;;8.50;6.03;;;;;;;;;;5007345;28;20026;-81
2021/06/11 00:14:40;;;;;;;6.95;5.90;;;;;;;;;;5014653;28;20045;-83
2021/06/11 00:17:09;;;;;;;9.07;6.63;;;;;;;;;;5017041;28;20031;-81
2021/06/11 00:19:35;;;;;;;7.78;6.10;;;;;;;;;;5009717;28;20117;-80
2021/06/11 00:22:01;;;;;;;7.43;6.22;;;;;;;;;;5015059;28;20085;-77
2021/06/11 00:24:28;;;;;;;12.73;7.45;;;;;;;;;;5010455;28;20064;-80
2021/06/11 00:26:54;;;;;;;10.13;6.40;;;;;;;;;;5008204;28;20490;-83
2021/06/11 00:29:20;;;;;;;9.70;6.47;;;;;;;;;;5009878;28;20481;-80
2021/06/11 00:31:46;;;;;;;8.57;6.57;;;;;;;;;;5006908;28;20150;-78
2021/06/11 00:34:12;;;;;;;11.20;6.40;;;;;;;;;;5007286;28;20187;-77
2021/06/11 00:36:38;;;;;;;6.80;6.10;;;;;;;;;;5007294;28;20532;-81
2021/06/11 00:39:05;;;;;;;9.15;6.60;;;;;;;;;;5013467;28;20056;-81
2021/06/11 00:41:34;;;;;;;8.77;6.32;;;;;;;;;;5008054;28;20082;-81
2021/06/11 00:44:00;;;;;;;8.10;6.40;;;;;;;;;;5014964;28;20026;-82
2021/06/11 00:46:26;;;;;;;8.95;6.78;;;;;;;;;;5010194;28;20104;-83
2021/06/11 00:48:52;;;;;;;9.02;6.80;;;;;;;;;;5014081;28;20049;-80
2021/06/11 00:51:20;;;;;;;10.00;6.53;;;;;;;;;;5008675;28;20037;-80
2021/06/11 00:53:50;;;;;;;8.98;6.57;;;;;;;;;;5005022;28;20034;-82
2021/06/11 00:56:16;;;;;;;9.38;6.95;;;;;;;;;;5009420;28;20120;-81
2021/06/11 00:58:42;;;;;;;7.88;6.65;;;;;;;;;;5008385;28;20042;-79
2021/06/11 01:01:11;;;;;;;7.97;6.68;;;;;;;;;;5006302;28;20125;-81
2021/06/11 01:03:37;;;;;;;7.47;6.65;;;;;;;;;;5005495;28;20029;-82
2021/06/11 01:06:04;;;;;;;8.80;7.07;;;;;;;;;;5000503;28;20023;-80
2021/06/11 01:08:35;;;;;;;7.63;6.63;;;;;;;;;;5010957;28;20022;-82
2021/06/11 01:11:02;;;;;;;8.40;6.80;;;;;;;;;;5007930;28;20093;-82
2021/06/11 01:13:28;;;;;;;7.78;6.82;;;;;;;;;;5006085;28;20037;-79
2021/06/11 01:15:54;;;;;;;9.63;7.15;;;;;;;;;;5007486;28;20034;-77
2021/06/11 01:18:21;;;;;;;8.18;6.80;;;;;;;;;;5011246;28;20022;-85
2021/06/11 01:20:48;;;;;;;12.45;6.57;;;;;;;;;;5009137;28;20105;-82
2021/06/11 01:23:28;;;;;;;7.75;6.72;;;;;;;;;;5010557;28;20040;-81
2021/06/11 01:25:58;;;;;;;9.32;7.18;;;;;;;;;;5003281;28;20080;-84
2021/06/11 01:28:26;;;;;;;7.78;6.95;;;;;;;;;;5012300;28;20101;-80
2021/06/11 01:30:57;;;;;;;11.13;6.82;;;;;;;;;;5008820;28;20550;-80
2021/06/11 01:33:25;;;;;;;8.43;7.20;;;;;;;;;;5009212;28;20026;-80
2021/06/11 01:35:57;;;;;;;8.55;6.68;;;;;;;;;;5008912;28;20022;-81
2021/06/11 01:38:26;;;;;;;10.63;6.85;;;;;;;;;;4997899;28;20023;-80
2021/06/11 01:40:54;;;;;;;7.25;6.25;;;;;;;;;;5005533;28;21639;-79
2021/06/11 01:43:21;;;;;;;8.30;7.00;;;;;;;;;;5005787;28;20030;-79
2021/06/11 01:45:47;;;;;;;8.45;6.68;;;;;;;;;;5012579;28;20021;-82
2021/06/11 01:48:17;;;;;;;8.32;7.35;;;;;;;;;;5014576;28;20476;-79
2021/06/11 01:50:44;;;;;;;9.80;7.25;;;;;;;;;;5004347;28;20061;-81
2021/06/11 01:53:11;;;;;;;8.90;7.00;;;;;;;;;;5010063;28;20036;-82
2021/06/11 01:55:38;;;;;;;8.13;7.30;;;;;;;;;;5008717;28;20052;-80
2021/06/11 01:58:07;;;;;;;9.02;7.15;;;;;;;;;;5011149;28;20054;-82
2021/06/11 02:00:39;;;;;;;9.65;7.50;;;;;;;;;;5007197;28;20388;-82
2021/06/11 02:03:11;;;;;;;8.18;7.00;;;;;;;;;;5007313;28;20488;-80
2021/06/11 02:05:38;;;;;;;9.43;7.53;;;;;;;;;;5008411;28;20030;-81
2021/06/11 02:08:04;;;;;;;8.05;6.65;;;;;;;;;;5012563;28;20125;-81
2021/06/11 02:10:31;;;;;;;8.63;7.35;;;;;;;;;;5015978;28;20037;-82
2021/06/11 02:12:57;;;;;;;10.13;7.38;;;;;;;;;;5013112;28;20035;-80
2021/06/11 02:15:23;;;;;;;8.85;6.97;;;;;;;;;;5010503;28;20041;-81
2021/06/11 02:17:51;;;;;;;7.75;6.93;;;;;;;;;;5009088;28;20025;-81
2021/06/11 02:20:23;;;;;;;8.02;7.22;;;17.50;99.90;;;;;;5014578;28;20492;-80
2021/06/11 02:22:49;;;;;;;7.43;6.63;;;;;;;;;;5013772;28;20034;-82
2021/06/11 02:25:19;;;;;;;8.52;7.10;;;;;;;;;;5017679;28;20029;-81
2021/06/11 02:27:46;;;;;;;8.23;6.95;;;;;;;;;;5012463;28;20049;-81
2021/06/11 02:30:19;;;;;;;9.38;6.90;;;;;;;;;;5008680;28;20034;-79
2021/06/11 02:32:45;;;;;;;10.30;7.15;;;;;;;;;;5004599;28;20061;-81
2021/06/11 02:35:19;;;;;;;8.07;6.97;;;;;;;;;;5007052;28;20041;-82
2021/06/11 02:37:45;;;;;;;9.05;6.78;;;;;;;;;;5008153;28;20097;-85
2021/06/11 02:40:12;;;;;;;9.20;7.28;;;17.40;99.90;;;;;;5012041;28;20033;-81
2021/06/11 02:42:38;;;;;;;10.25;7.35;;;17.30;99.90;;;;;;5007506;28;20038;-83
2021/06/11 02:45:11;;;;;;;9.43;7.47;;;17.30;99.90;;;;;;5012944;28;20026;-80
2021/06/11 02:47:59;;;;;;;10.02;7.55;;;17.30;99.90;;;;;;5017255;28;20091;-79
2021/06/11 02:50:35;;;;;;;10.00;7.80;;;17.20;99.90;;;;;;5008519;28;20080;-83
2021/06/11 02:53:02;;;;;;;9.25;7.55;;;17.20;99.90;;;;;;5010237;28;20040;-82
2021/06/11 02:55:29;;;;;;;10.02;7.38;;;17.20;99.90;;;;;;5015475;28;20031;-82
2021/06/11 02:57:57;;;;;;;8.25;7.32;;;;;;;;;;4996599;28;20049;-82
2021/06/11 03:00:26;;;;;;;8.23;7.28;;;17.10;99.90;;;;;;5007312;28;20029;-83
2021/06/11 03:02:58;;;;;;;9.57;7.10;;;17.10;99.90;;;;;;5011545;28;20032;-80
2021/06/11 03:05:25;;;;;;;8.55;7.10;;;17.10;99.90;;;;;;5013134;28;20022;-80
2021/06/11 03:07:56;;;;;;;9.20;7.22;;;17.10;99.90;;;;;;5011014;28;20022;-79
2021/06/11 03:10:30;;;;;;;9.70;7.40;;;17.10;99.90;;;;;;5011414;28;20037;-80
2021/06/11 03:13:01;;;;;;;8.00;7.20;;;17.10;99.90;;;;;;5012728;28;20037;-81
2021/06/11 03:15:31;;;;;;;7.95;7.05;;;17.10;99.90;;;;;;5006539;28;20037;-80
2021/06/11 03:18:02;;;;;;;8.63;7.38;;;17.00;99.90;;;;;;5007525;28;20499;-80
2021/06/11 03:20:31;;;;;;;8.32;7.32;;;;;;;;;;5011995;28;20395;-82
2021/06/11 03:23:14;;;;;;;9.35;7.68;;;16.90;99.90;;;;;;5011743;28;20033;-80
2021/06/11 03:25:52;;;;;;;8.07;6.70;;;16.90;99.90;;;;;;5006118;28;20045;-80
2021/06/11 03:28:22;;;;;;;8.82;7.63;;;16.90;99.90;;;;;;5010577;28;20050;-82
2021/06/11 03:30:54;;;;;;;10.15;7.28;;;16.90;99.90;;;;;;5007701;28;20064;-81
2021/06/11 03:33:27;;;;;;;9.80;7.55;;;16.70;99.90;;;;;;5005770;28;20026;-78
2021/06/11 03:35:59;;;;;;;11.75;7.80;;;16.80;99.90;;;;;;5019131;28;20042;-81
2021/06/11 03:38:26;;;;;;;9.23;7.38;;;16.80;99.90;;;;;;5017092;28;20038;-80
2021/06/11 03:40:54;;;;;;;11.10;7.30;;;;;;;;;;5017177;28;20033;-80
2021/06/11 03:43:20;;;;;;;10.50;7.30;;;;;;;;;;5016171;28;20121;-82
2021/06/11 03:45:47;;;;;;;10.80;7.45;;;;;;;;;;5013092;28;21380;-81
2021/06/11 03:48:17;;;;;;;8.02;7.22;;;;;;;;;;5013227;28;20030;-78
2021/06/11 03:50:47;;;;;;;8.60;7.13;;;;;;;;;;5005838;28;20022;-82
2021/06/11 03:53:14;;;;;;;8.82;7.25;;;;;;;;;;5016611;28;20512;-80
2021/06/11 03:55:45;;;;;;;10.27;7.38;;;;;;;;;;5009976;28;20039;-83
2021/06/11 03:58:31;;;;;;;9.73;7.25;;;;;;;;;;5009401;28;20117;-81
2021/06/11 04:00:58;;;;;;;8.13;7.07;;;;;;;;;;5012853;28;20026;-80
2021/06/11 04:03:31;;;;;;;8.70;7.30;;;;;;;;;;4999438;28;20053;-81
2021/06/11 04:06:04;;;;;;;11.80;7.88;;;;;;;;;;5008991;28;20022;-81
2021/06/11 04:08:33;;;;;;;10.02;7.28;;;;;;;;;;5008594;28;20034;-79
2021/06/11 04:10:59;;;;;;;10.57;7.40;;;;;;;;;;5004172;28;20087;-80
2021/06/11 04:13:35;;;;;;;9.50;7.20;;;;;;;;;;5003344;28;20021;-80
2021/06/11 04:16:01;;;;;;;9.65;7.43;;;;;;;;;;5005550;28;20516;-79
2021/06/11 04:18:30;;;;;;;8.43;7.47;;;;;;;;;;5012424;28;20543;-82
2021/06/11 04:21:00;;;;;;;9.63;7.90;;;;;;;;;;5008950;28;20028;-80
2021/06/11 04:23:27;;;;;;;11.82;7.72;;;;;;;;;;5009132;28;20504;-79
2021/06/11 04:25:54;;;;;;;9.60;7.47;;;;;;;;;;5011193;28;20044;-80
2021/06/11 04:28:22;;;;;;;9.55;7.20;;;;;;;;;;5010999;28;20150;-82
2021/06/11 04:30:48;;;;;;;9.38;7.25;;;;;;;;;;5012803;28;20026;-83
2021/06/11 04:33:20;;;;;;;10.35;6.80;;;;;;;;;;5004439;28;20034;-83
2021/06/11 04:35:47;;;;;;;13.07;7.32;;;;;;;;;;5009526;28;20039;-80
2021/06/11 04:38:13;;;;;;;11.10;7.32;;;;;;;;;;5004505;28;20032;-79
2021/06/11 04:40:40;;;;;;;9.95;7.30;;;;;;;;;;5009267;28;20827;-79
2021/06/11 04:43:06;;;;;;;9.77;6.95;;;;;;;;;;5014561;28;20038;-84
2021/06/11 04:45:32;;;;;;;8.60;7.47;;;;;;;;;;5007963;28;20053;-81
2021/06/11 04:47:59;;;;;;;7.57;6.55;;;;;;;;;;5006597;28;20026;-82
2021/06/11 04:50:25;;;;;;;10.07;7.38;;;;;;;;;;5007478;28;20567;-79
2021/06/11 04:52:51;;;;;;;8.10;6.68;;;;;;;;;;5005511;28;20030;-79
2021/06/11 04:55:17;;;;;;;11.02;7.20;;;;;;;;;;5006487;28;20026;-79
2021/06/11 04:57:43;;;;;;;9.77;6.95;;;;;;;;;;5009431;28;20034;-81
2021/06/11 05:00:10;;;;;;;8.98;7.30;;;17.50;99.90;;;;;;5008080;28;20476;-81
2021/06/11 05:02:36;;;;;;;8.45;7.05;;;;;;;;;;5005247;28;20026;-82
2021/06/11 05:05:02;;;;;;;8.45;6.80;;;;;;;;;;5007794;28;20030;-81
2021/06/11 05:07:28;;;;;;;7.10;6.40;;;;;;;;;;5003850;28;20068;-80
2021/06/11 05:09:54;;;;;;;8.85;6.95;;;;;;;;;;5006277;28;20481;-79
2021/06/11 05:12:20;;;;;;;8.15;6.82;;;;;;;;;;4999878;28;20038;-80
2021/06/11 05:14:45;;;;;;;9.45;6.93;;;17.80;99.90;;;;;;4996178;28;20113;-79
2021/06/11 05:17:11;;;;;;;7.88;6.57;;;;;;;;;;4993909;28;20551;-79
2021/06/11 05:19:39;;;;;;;8.15;6.82;;;;;;;;;;4998118;28;20050;-79
2021/06/11 05:22:05;;;;;;;7.75;6.18;;;;;;;;;;5001357;28;20026;-80
2021/06/11 05:24:31;;;;;;;8.65;6.65;;;;;;;;;;5002155;28;20037;-80
2021/06/11 05:26:57;;;;;;;10.98;6.80;;;;;;;;;;5003829;28;20461;-78
2021/06/11 05:29:23;;;;;;;8.43;6.00;;;20.60;97.20;;;;;;5005988;28;20512;-77
2021/06/11 05:31:49;;;;;;;6.63;5.68;;;;;;;;;;4999396;28;20799;-78
2021/06/11 05:34:15;;;;;;;10.75;5.82;;;;;;;;;;5003409;28;20044;-78
2021/06/11 05:36:41;;;;;;;7.40;5.45;;;;;;;;;;5005524;28;20108;-77
2021/06/11 05:39:07;;;;;;;8.85;5.38;;;22.50;93.40;;;;;;5000136;28;20030;-78
2021/06/11 05:41:33;;;;;;;7.88;5.40;;;23.50;91.60;;;;;;5003239;28;20142;-78
2021/06/11 05:43:59;;;;;;;6.70;5.20;;;;;;;;;;5008640;28;20038;-78
2021/06/11 05:46:25;;;;;;;7.03;5.82;;;;;;;;;;5000948;28;20048;-78
2021/06/11 05:48:51;;;;;;;7.32;5.80;;;23.40;90.50;;;;;;5006569;28;20469;-77
2021/06/11 05:51:17;;;;;;;6.85;5.60;;;;;;;;;;5004291;28;20113;-79
2021/06/11 05:53:43;;;;;;;8.57;5.93;;;;;;;;;;5009380;28;20396;-79
2021/06/11 05:56:09;;;;;;;8.63;6.07;;;;;;;;;;5006482;28;20040;-78
2021/06/11 05:58:36;;;;;;;8.40;6.20;;;23.40;90.10;;;;;;5001552;28;20034;-77
2021/06/11 06:01:03;;;;;;;7.97;6.28;;;23.70;89.90;;;;;;5007207;28;20437;-80
2021/06/11 06:03:29;;;;;;;8.50;6.28;;;23.80;89.60;;;;;;5003263;28;20029;-81
2021/06/11 06:05:54;;;;;;;8.27;6.30;;;23.50;90.00;;;;;;5012024;28;20022;-79
2021/06/11 06:08:20;;;;;;;10.57;6.13;;;;;;;;;;5009420;28;20034;-82
2021/06/11 06:10:46;;;;;;;10.43;6.40;;;;;;;;;;5005912;28;20030;-82
2021/06/11 06:13:12;;;;;;;9.00;6.50;;;;;;;;;;5011592;28;20030;-81
2021/06/11 06:15:39;;;;;;;13.57;6.40;;;;;;;;;;5014046;28;20030;-82
2021/06/11 06:18:05;;;;;;;10.05;6.63;;;;;;;;;;5013477;28;20133;-81
2021/06/11 06:20:31;;;;;;;10.05;6.28;;;;;;;;;;5001791;28;20023;-81
2021/06/11 06:22:57;;;;;;;11.90;7.13;;;;;;;;;;5008208;28;20030;-80
2021/06/11 06:25:23;;;;;;;9.00;6.93;;;;;;;;;;5014960;28;20332;-84
2021/06/11 06:27:49;;;;;;;9.50;6.43;;;;;;;;;;5004709;28;20078;-82
2021/06/11 06:30:15;;;;;;;13.82;6.70;;;;;;;;;;5005321;28;20495;-82
2021/06/11 06:32:42;;;;;;;9.95;6.85;;;;;;;;;;5006966;28;20041;-81
2021/06/11 06:35:11;;;;;;;8.23;6.38;;;;;;;;;;5013089;28;20042;-81
2021/06/11 06:37:37;;;;;;;8.85;6.57;;;;;;;;;;5005715;28;20030;-81
2021/06/11 06:40:04;;;;;;;9.57;6.38;;;23.20;89.90;;;;;;5010050;28;20029;-81
2021/06/11 06:42:30;;;;;;;10.32;6.57;;;;;;;;;;5001629;28;20477;-81
2021/06/11 06:44:56;;;;;;;8.40;6.20;;;;;;;;;;5006288;28;20045;-80
2021/06/11 06:47:22;;;;;;;7.68;6.13;;;;;;;;;;5008064;28;20026;-81
2021/06/11 06:49:48;;;;;;;12.13;6.72;;;23.20;89.40;;;;;;5006505;28;20026;-79
2021/06/11 06:52:15;;;;;;;8.20;6.63;;;22.90;90.00;;;;;;5024737;28;20034;-82
2021/06/11 06:54:43;;;;;;;7.13;6.30;;;;;;;;;;5011716;28;20122;-81
2021/06/11 06:57:09;;;;;;;12.07;6.90;;;;;;;;;;5008222;28;20378;-82
2021/06/11 06:59:35;;;;;;;7.72;6.20;;;;;;;;;;5010565;28;20197;-82
2021/06/11 07:02:01;;;;;;;8.35;6.72;;;;;;;;;;5019246;28;20061;-82
2021/06/11 07:04:27;;;;;;;8.23;6.72;;;23.00;89.30;;;;;;5009719;28;20033;-84
2021/06/11 07:06:53;;;;;;;8.32;6.63;;;;;;;;;;5006229;28;20026;-83
2021/06/11 07:09:20;;;;;;;10.00;6.35;;;;;;;;;;5011606;28;20035;-82
2021/06/11 07:11:49;;;;;;;7.93;5.80;;;;;;;;;;5008595;28;20037;-82
2021/06/11 07:14:16;;;;;;;7.78;6.32;;;23.20;88.00;;;;;;5013506;28;20113;-83
2021/06/11 07:16:42;;;;;;;6.78;6.07;;;23.30;87.70;;;;;;5016244;28;20080;-83
2021/06/11 07:19:09;;;;;;;6.40;5.45;;;;;;;;;;5017436;28;20034;-83
2021/06/11 07:21:35;;;;;;;10.05;6.05;;;;;;;;;;5012864;28;20069;-84
2021/06/11 07:24:01;;;;;;;7.85;5.82;;;;;;;;;;5020059;28;20069;-84
2021/06/11 07:26:30;;;;;;;8.32;5.97;;;;;;;;;;5011277;28;20022;-83
2021/06/11 07:28:56;;;;;;;9.48;5.55;;;;;;;;;;5013761;28;20113;-82
2021/06/11 07:31:23;;;;;;;5.95;4.50;;;;;;;;;;5012976;28;20037;-84
2021/06/11 07:33:49;;;;;;;5.00;4.38;;;;;;;;;;5012049;28;20027;-83
2021/06/11 07:36:15;;;;;;;7.05;4.97;;;;;;;;;;5016112;28;20124;-82
2021/06/11 07:38:41;;;;;;;6.45;4.78;;;;;;;;;;5003303;28;20065;-82
2021/06/11 07:41:07;;;;;;;7.40;4.90;;;;;;;;;;5011382;28;20057;-82
2021/06/11 07:43:33;;;;;;;6.85;5.78;;;;;;;;;;5009446;28;20014;-80
2021/06/11 07:45:59;;;;;;;8.10;5.00;;;;;;;;;;5016829;28;20440;-83
2021/06/11 07:48:25;;;;;;;8.38;5.10;;;;;;;;;;5007934;28;20015;-85
2021/06/11 07:50:51;;;;;;;5.22;3.90;;;;;;;;;;5002320;28;20401;-84
2021/06/11 07:53:17;;;;;;;6.43;4.28;;;;;;;;;;5013152;28;20030;-85
2021/06/11 07:55:43;;;;;;;7.32;4.68;;;;;;;;;;5013367;28;20481;-83
2021/06/11 07:58:09;;;;;;;7.53;4.57;;;;;;;;;;5009710;28;20121;-84
2021/06/11 08:00:35;;;;;;;5.32;4.35;;;;;;;;;;5003103;28;20382;-85
2021/06/11 08:03:01;;;;;;;5.00;4.22;;;;;;;;;;5013220;28;20609;-83
2021/06/11 08:05:28;;;;;;;6.60;4.10;;;24.40;82.20;;;;;;5004316;28;20374;-85
2021/06/11 08:07:54;;;;;;;6.43;4.05;;;;;;;;;;5005973;28;20456;-84
2021/06/11 08:10:21;;;;;;;5.55;3.80;;;;;;;;;;5007603;28;20022;-83
2021/06/11 08:12:47;;;;;;;6.75;4.32;;;;;;;;;;5006948;28;20038;-83
2021/06/11 08:15:14;;;;;;;5.47;3.90;;;;;;;;;;5012505;28;20026;-84
2021/06/11 08:17:40;;;;;;;8.10;4.10;;;;;;;;;;5005933;28;20176;-86
2021/06/11 08:20:07;;;;;;;5.68;3.47;;;;;;;;;;5011338;28;20026;-83
2021/06/11 08:22:34;;;;;;;5.30;3.90;;;;;;;;;;5012440;28;20013;-80
2021/06/11 08:24:59;;;;;;;4.13;3.30;;;25.40;79.70;;;;;;5023582;28;20058;-84
2021/06/11 08:27:28;;;;;;;8.10;3.88;;;25.50;78.90;;;;;;5024790;28;20037;-83
2021/06/11 08:29:54;;;;;;;5.18;3.80;;;;;;;;;;5016897;28;20030;-83
2021/06/11 08:32:20;;;;;;;4.38;3.70;;;;;;;;;;5011015;28;20085;-83
2021/06/11 08:34:46;;;;;;;4.55;3.55;;;;;;;;;;5010247;28;20018;-82
2021/06/11 08:37:12;;;;;;;6.32;3.95;;;;;;;;;;5013349;28;20093;-83
2021/06/11 08:39:38;;;;;;;5.85;4.10;;;25.80;76.60;;;;;;5006241;28;20048;-82
2021/06/11 08:42:07;;;;;;;4.18;3.60;;;25.90;76.60;;;;;;5002888;28;20030;-82
2021/06/11 08:44:35;;;;;;;5.13;3.25;;;26.00;75.30;;;;;;5005628;28;20037;-80
2021/06/11 08:47:01;;;;;;;7.55;4.03;;;26.20;75.10;;;;;;5009781;28;20065;-83
2021/06/11 08:49:27;;;;;;;6.57;3.60;;;;;;;;;;5010718;28;20035;-82
2021/06/11 08:51:56;;;;;;;5.70;3.42;;;;;;;;;;5008250;28;20034;-84
2021/06/11 08:54:22;;;;;;;4.20;3.20;;;;;;;;;;5010545;28;20027;-82
2021/06/11 08:56:50;;;;;;;4.80;3.50;;;;;;;;;;5003249;28;59793;-83
2021/06/11 08:59:16;;;;;;;4.28;2.67;;;;;;;;;;4997049;28;20029;-83
2021/06/11 09:01:43;;;;;;;5.80;3.05;;;;;;;;;;5010011;28;20033;-83
2021/06/11 09:04:09;;;;;;;3.50;2.75;;;;;;;;;;5010077;28;20393;-82
2021/06/11 09:06:35;;;;;;;4.50;3.00;;;26.70;68.10;;;;;;5024849;28;20030;-82
2021/06/11 09:09:02;;;;;;;3.80;2.70;;;;;;;;;;5010022;28;20025;-82
2021/06/11 09:11:33;;;;;;;4.10;2.50;;;;;;;;;;5007156;28;20058;-82
2021/06/11 09:14:11;;;;;;;4.40;2.58;;;27.10;67.50;;;;;;5010955;28;20453;-82
2021/06/11 09:16:41;;;;;;;3.60;2.88;;;27.10;67.10;;;;;;5007480;28;20030;-85
2021/06/11 09:19:08;;;;;;;4.03;2.70;;;;;;;;;;5008982;28;20056;-83
2021/06/11 09:21:42;;;;;;;4.13;2.72;;;27.00;66.10;;;;;;5005897;28;22138;-83
2021/06/11 09:24:17;;;;;;;4.05;2.72;;;;;;;;;;5013777;28;20452;-83
2021/06/11 09:27:09;;;;;;;4.75;2.95;;;27.00;64.60;;;;;;5013373;28;20030;-83
2021/06/11 09:29:49;;;;;;;4.07;2.50;;;26.90;64.70;;;;;;5011019;28;20026;-82
2021/06/11 09:32:21;;;;;;;6.15;2.33;;;27.00;64.70;;;;;;5013511;28;20080;-83
2021/06/11 09:34:55;;;;;;;4.28;2.83;;;27.10;65.90;;;;;;5015913;28;20041;-82
2021/06/11 09:37:30;;;;;;;4.65;2.80;;;;;;;;;;5018463;28;20037;-82
2021/06/11 09:39:58;;;;;;;3.83;2.85;;;27.20;68.00;;;;;;5009259;28;20030;-82
2021/06/11 09:42:38;;;;;;;5.13;3.08;;;;;;;;;;5014217;28;20030;-82
2021/06/11 09:45:06;;;;;;;4.10;2.83;;;;;;;;;;5014931;28;20080;-82
2021/06/11 09:47:36;;;;;;;3.50;2.90;;;;;;;;;;5004677;28;20101;-82
2021/06/11 09:50:14;;;;;;;6.53;3.17;;;;;;;;;;5015364;28;20053;-82
2021/06/11 09:52:51;;;;;;;5.22;2.90;;;;;;;;;;5015372;28;20076;-82
2021/06/11 09:55:24;;;;;;;3.97;3.58;;;;;;;;;;5013323;28;20030;-85
2021/06/11 09:58:17;;;;;;;3.28;2.47;;;27.70;62.80;;;;;;5026811;28;20125;-82
2021/06/11 10:00:49;;;;;;;5.30;3.42;;;;;;;;;;5016533;28;20037;-82
2021/06/11 10:03:19;;;;;;;3.28;2.85;;;;;;;;;;5008759;28;20033;-84
2021/06/11 10:05:45;;;;;;;3.40;2.88;;;;;;;;;;5015988;28;20052;-81
2021/06/11 10:08:11;;;;;;;3.83;3.20;;;;;;;;;;5015983;28;20030;-83
2021/06/11 10:10:38;;;;;;;3.63;3.03;;;;;;;;;;5016354;28;20469;-81
2021/06/11 10:13:04;;;;;;;6.82;3.30;;;;;;;;;;5012012;28;20041;-82
2021/06/11 10:15:31;;;;;;;5.72;3.65;;;;;;;;;;5015693;28;20500;-83
2021/06/11 10:17:57;;;;;;;3.58;3.25;;;;;;;;;;5012158;28;20032;-83
2021/06/11 10:20:24;;;;;;;5.30;3.42;;;;;;;;;;5015919;28;20026;-81
2021/06/11 10:22:50;;;;;;;5.43;3.45;;;;;;;;;;5023220;28;20045;-82
2021/06/11 10:25:16;;;;;;;4.75;3.00;;;;;;;;;;5010354;28;20083;-82
2021/06/11 10:27:43;;;;;;;4.22;3.47;;;28.70;58.30;;;;;;5017700;28;20205;-82
2021/06/11 10:30:10;;;;;;;4.15;3.33;;;;;;;;;;5002690;28;20093;-84
2021/06/11 10:32:41;;;;;;;5.65;3.30;;;;;;;;;;5019609;28;20093;-83
2021/06/11 10:35:08;;;;;;;5.25;3.20;;;;;;;;;;5023464;28;20084;-81
2021/06/11 10:37:34;;;;;;;4.63;2.95;;;;;;;;;;5013698;28;20052;-81
2021/06/11 10:40:18;;;;;;;6.22;2.92;;;29.00;57.00;;;;;;5016057;28;20089;-81
2021/06/11 10:42:44;;;;;;;5.82;3.10;;;;;;;;;;5019072;28;20029;-82
2021/06/11 10:45:14;;;;;;;6.53;3.85;;;;;;;;;;5017387;28;20026;-83
2021/06/11 10:48:06;;;;;;;4.57;3.28;;;29.40;57.20;;;;;;5019204;28;20038;-84
2021/06/11 10:50:34;;;;;;;3.92;3.10;;;;;;;;;;5021150;28;20038;-79
2021/06/11 10:53:14;;;;;;;4.28;3.00;;;29.70;56.50;;;;;;5018635;28;20034;-81
2021/06/11 10:55:46;;;;;;;4.30;3.20;;;29.80;56.70;;;;;;5017213;28;20150;-80
2021/06/11 10:58:12;;;;;;;7.53;3.20;;;;;;;;;;5022509;28;20034;-83
2021/06/11 11:00:42;;;;;;;4.47;3.60;;;29.50;56.80;;;;;;5021082;28;20033;-83
2021/06/11 11:03:22;;;;;;;4.20;2.80;;;29.40;56.10;;;;;;5025755;28;20029;-82
2021/06/11 11:05:48;;;;;;;5.00;2.65;;;;;;;;;;5016881;28;20028;-82
2021/06/11 11:08:14;;;;;;;3.75;2.83;;;;;;;;;;5015111;28;20168;-82
2021/06/11 11:10:48;;;;;;;4.43;2.97;;;29.40;55.30;;;;;;5014350;28;20038;-82
2021/06/11 11:13:25;;;;;;;4.63;2.80;;;;;;;;;;5012681;28;20098;-83
2021/06/11 11:15:55;;;;;;;4.43;2.75;;;29.30;53.80;;;;;;5018781;28;20022;-83
2021/06/11 11:18:39;;;;;;;4.18;2.65;;;;;;;;;;5021671;28;20279;-79
2021/06/11 11:21:24;;;;;;;4.68;2.92;;;;;;;;;;5018649;28;20033;-82
2021/06/11 11:23:54;;;;;;;3.88;2.80;;;;;;;;;;5021021;28;20181;-82
2021/06/11 11:26:23;;;;;;;4.22;3.17;;;;;;;;;;5010493;28;20036;-82
2021/06/11 11:28:49;;;;;;;3.95;2.70;;;;;;;;;;5015022;28;20026;-82
2021/06/11 11:31:15;;;;;;;5.22;3.35;;;;;;;;;;5015006;28;20048;-81
2021/06/11 11:33:41;;;;;;;4.63;3.20;;;;;;;;;;5015644;28;20037;-83
2021/06/11 11:36:07;;;;;;;5.28;3.17;;;;;;;;;;5008299;28;20030;-81
2021/06/11 11:38:33;;;;;;;9.65;3.22;;;;;;;;;;5008603;28;20023;-80
2021/06/11 11:40:59;;;;;;;4.47;3.13;;;;;;;;;;5017938;28;20033;-81
2021/06/11 11:43:25;;;;;;;4.07;2.92;;;;;;;;;;5014263;28;20065;-81
2021/06/11 11:45:51;;;;;;;3.53;3.10;;;;;;;;;;5017735;28;20022;-81
2021/06/11 11:48:23;;;;;;;4.75;3.30;;;;;;;;;;5012654;28;20021;-78
2021/06/11 11:50:49;;;;;;;4.20;3.17;;;;;;;;;;5006265;28;20031;-80
2021/06/11 11:53:15;;;;;;;5.35;3.30;;;;;;;;;;5014239;28;20064;-80
2021/06/11 11:55:41;;;;;;;5.72;3.45;;;;;;;;;;5012960;28;20090;-82
2021/06/11 11:58:07;;;;;;;4.60;3.33;;;;;;;;;;5011191;28;20059;-82
2021/06/11 12:00:33;;;;;;;6.75;3.50;;;;;;;;;;5006542;28;20426;-81
2021/06/11 12:02:59;;;;;;;4.40;3.35;;;;;;;;;;5008789;28;20042;-82
2021/06/11 12:05:26;;;;;;;5.07;3.47;;;;;;;;;;5004918;28;20022;-82
2021/06/11 12:11:13;;;;;;;5.85;3.67;;;;;;;;;;4928784;28;20059;-79
2021/06/11 12:17:16;;;;;;;;;;;;;;;;;;;;;
2021/06/11 12:20:16;;;;;;;;;;;;;;;;;;;;;
2021/06/11 12:23:34;;;;;;;;;;;;;;;;;;;;;
2021/06/11 12:42:10;;;;;;;;;;;;;;;;;;;;;
2021/06/11 12:58:02;;;;;;;4.13;2.90;;;;;;;;;;5014495;28;20073;-80
2021/06/11 13:07:36;;;;;;;;;;;;;;;;;;;;;
2021/06/11 13:26:49;;;;;;;4.88;3.40;;;;;;;;;;4889210;29;20039;-80
2021/06/11 13:29:46;;;;;;;6.53;3.30;;;;;;;;;;4935186;29;20613;-81
2021/06/11 13:32:28;;;;;;;;;;;;;;;;;;;;;
2021/06/11 13:35:03;;;;;;;4.15;2.83;;;;;;;;;;5011600;28;20036;-80
2021/06/11 13:37:57;;;;;;;6.68;4.15;;;;;;;;;;5004788;28;20030;-81
2021/06/11 13:41:26;;;;;;;;;;;;;;;;;;;;;
2021/06/11 13:44:06;;;;;;;9.63;3.28;;;;;;;;;;5000904;28;20128;-80
2021/06/11 13:50:23;;;;;;;2.90;2.60;;;;;;;;;;4964175;28;20031;-81
2021/06/11 13:53:51;;;;;;;;;;;;;;;;;;;;;
2021/06/11 13:56:53;;;;;;;;;;;;;;;;;;;;;
2021/06/11 13:59:36;;;;;;;;;;;;;;;;;;;;;
2021/06/11 14:02:23;;;;;;;4.47;2.75;;;;;;;;;;5009613;28;20062;-81
2021/06/11 14:05:14;;;;;;;6.20;3.00;;;;;;;;;;5010243;28;20102;-81
2021/06/11 14:07:51;;;;;;;4.13;2.80;;;;;;;;;;5017176;28;20029;-81
2021/06/11 14:10:27;;;;;;;6.40;2.60;;;;;;;;;;5006064;28;20098;-80
2021/06/11 14:13:11;;;;;;;4.03;2.42;;;;;;;;;;5015475;28;20088;-80
2021/06/11 14:15:37;;;;;;;4.95;2.60;;;;;;;;;;5010869;28;20102;-82
2021/06/11 14:18:13;;;;;;;2.60;2.10;;;;;;;;;;5013264;28;20045;-82
2021/06/11 14:20:45;;;;;;;4.78;2.47;;;;;;;;;;5010364;28;20041;-79
2021/06/11 14:23:26;;;;;;;;;;;;;;;;;;;;;
2021/06/11 14:25:58;;;;;;;4.20;2.13;;;;;;;;;;5011551;28;20496;-81
2021/06/11 14:28:35;;;;;;;4.10;2.03;;;;;;;;;;5014206;28;20539;-80
2021/06/11 14:31:04;;;;;;;4.80;2.50;;;;;;;;;;5006512;28;20030;-80
2021/06/11 14:33:30;;;;;;;3.28;2.42;;;;;;;;;;5006744;28;20044;-82
2021/06/11 14:35:58;;;;;;;4.30;2.58;;;;;;;;;;5012264;28;20034;-81
2021/06/11 14:38:29;;;;;;;3.08;2.30;;;;;;;;;;5011694;28;20030;-81
2021/06/11 14:41:21;;;;;;;2.45;2.20;;;;;;;;;;5010693;28;20030;-80
2021/06/11 14:43:56;;;;;;;2.83;2.10;;;;;;;;;;5015056;28;20088;-82
2021/06/11 14:46:29;;;;;;;4.03;2.28;;;;;;;;;;4992432;28;20069;-81
2021/06/11 14:48:55;;;;;;;3.40;2.40;;;;;;;;;;5009720;28;20106;-80
2021/06/11 14:51:23;;;;;;;4.72;2.20;;;;;;;;;;5016364;28;20034;-81
2021/06/11 14:53:52;;;;;;;2.60;2.08;;;;;;;;;;5011576;28;20026;-81
2021/06/11 15:02:47;;;;;;;3.55;2.33;;;;;;;;;;5010003;28;20046;-81
2021/06/11 15:05:17;;;;;;;2.50;2.13;;;;;;;;;;4928092;29;20036;-81
2021/06/11 15:08:01;;;;;;;;;;;;;;;;;;;;;
2021/06/11 15:13:50;;;;;;;4.72;2.20;;;;;;;;;;5061381;23;20844;-81
2021/06/11 15:16:18;;;;;;;3.03;2.13;;;;;;;;;;5026397;28;20217;-81
2021/06/11 15:18:44;;;;;;;3.35;2.33;;;;;;;;;;5026470;28;20088;-80
2021/06/11 15:21:10;;;;;;;4.03;2.30;;;;;;;;;;5026103;28;20025;-82
2021/06/11 15:23:36;;;;;;;3.30;2.30;;;;;;;;;;5027607;28;20149;-81
2021/06/11 15:26:02;;;;;;;4.05;2.20;;;;;;;;;;5026598;28;20643;-81
2021/06/11 15:28:29;;;;;;;4.80;2.08;;;;;;;;;;5025387;28;20051;-82
2021/06/11 15:30:55;;;;;;;4.07;2.10;;;;;;;;;;5022305;28;20566;-79
2021/06/11 15:33:22;;;;;;;4.18;2.08;;;;;;;;;;5024577;28;20025;-80
2021/06/11 15:35:48;;;;;;;3.15;2.10;;;;;;;;;;5027416;28;20059;-83
2021/06/11 15:38:15;;;;;;;2.42;1.85;;;;;;;;;;5023513;28;20030;-81
2021/06/11 15:40:41;;;;;;;3.50;2.15;;;;;;;;;;5025132;28;20128;-81
2021/06/11 15:43:10;;;;;;;3.38;1.70;;;29.70;48.30;;;;;;5025936;28;20064;-79
2021/06/11 15:45:43;;;;;;;3.67;2.20;;;29.70;47.30;;;;;;5032734;28;20023;-80
2021/06/11 15:48:10;;;;;;;4.15;2.15;;;;;;;;;;5029661;28;20048;-81
2021/06/11 15:50:37;;;;;;;2.45;2.00;;;;;;;;;;5023473;28;20049;-81
2021/06/11 15:53:06;;;;;;;3.58;2.03;;;;;;;;;;5025640;28;20034;-82
2021/06/11 15:55:33;;;;;;;3.88;1.92;;;;;;;;;;5023616;28;20089;-81